CSN6043 ZGGG-ZGHA
Flight info
| Callsign | CSN6043 |
|---|---|
| Flight time | 0h 50m |
| Altitude | 33100 |
| Route | MIKIP8 MIKIP A461 MEXON W616 UKLUK |
| Aircraft | B77W/H-SDE1E2E3FGHIJ2J3J4J5M1RWXY/LB1D1 |
Departure
| Time | 2026-04-22 16:25 |
|---|---|
| Airport | Guangzhou Baiyun International Airport (ZGGG) |
Arrival
| Time | 2026-04-22 17:16 |
|---|---|
| Airport | Changsha Huanghua International Airport (ZGHA) |
| Time | Latitude | Longitude | Altitude | Speed | Heading |
|---|---|---|---|---|---|
| 2026-04-22 16:10 | 23.40168 | 113.30227 | 58 ft | 0 kts | 193° |
| 2026-04-22 16:16 | 23.40181 | 113.30229 | 58 ft | 2 kts | 187° |
| 2026-04-22 16:16 | 23.40195 | 113.30231 | 58 ft | 2 kts | 191° |
| 2026-04-22 16:17 | 23.40209 | 113.30235 | 58 ft | 0 kts | 194° |
| 2026-04-22 16:17 | 23.40219 | 113.30238 | 58 ft | 2 kts | 180° |
| 2026-04-22 16:17 | 23.40234 | 113.30234 | 58 ft | 2 kts | 147° |
| 2026-04-22 16:17 | 23.40245 | 113.30223 | 58 ft | 2 kts | 120° |
| 2026-04-22 16:18 | 23.40249 | 113.30213 | 58 ft | 0 kts | 103° |
| 2026-04-22 16:18 | 23.40250 | 113.30209 | 58 ft | 0 kts | 103° |
| 2026-04-22 16:19 | 23.40243 | 113.30238 | 58 ft | 8 kts | 103° |
| 2026-04-22 16:20 | 23.40242 | 113.30333 | 58 ft | 16 kts | 73° |
| 2026-04-22 16:20 | 23.40329 | 113.30449 | 58 ft | 23 kts | 45° |
| 2026-04-22 16:20 | 23.40418 | 113.30596 | 58 ft | 24 kts | 88° |
| 2026-04-22 16:20 | 23.40376 | 113.30798 | 58 ft | 30 kts | 104° |
| 2026-04-22 16:21 | 23.40331 | 113.31005 | 58 ft | 13 kts | 102° |
| 2026-04-22 16:21 | 23.40383 | 113.31094 | 58 ft | 20 kts | 11° |
| 2026-04-22 16:21 | 23.40588 | 113.31144 | 58 ft | 37 kts | 13° |
| 2026-04-22 16:21 | 23.40819 | 113.31206 | 58 ft | 16 kts | 14° |
| 2026-04-22 16:22 | 23.40915 | 113.31270 | 58 ft | 4 kts | 93° |
| 2026-04-22 16:22 | 23.40912 | 113.31295 | 58 ft | 0 kts | 101° |
| 2026-04-22 16:23 | 23.40907 | 113.31323 | 58 ft | 10 kts | 101° |
| 2026-04-22 16:23 | 23.40883 | 113.31396 | 58 ft | 10 kts | 132° |
| 2026-04-22 16:23 | 23.40815 | 113.31412 | 58 ft | 10 kts | 189° |
| 2026-04-22 16:24 | 23.40777 | 113.31402 | 58 ft | 0 kts | 194° |
| 2026-04-22 16:24 | 23.40776 | 113.31401 | 58 ft | 2 kts | 194° |
| 2026-04-22 16:25 | 23.40634 | 113.31363 | 58 ft | 55 kts | 194° |
| 2026-04-22 16:25 | 23.38787 | 113.30870 | 411 ft | 190 kts | 194° |
| 2026-04-22 16:25 | 23.37540 | 113.30538 | 1529 ft | 189 kts | 194° |
| 2026-04-22 16:26 | 23.36246 | 113.30178 | 2572 ft | 203 kts | 194° |
| 2026-04-22 16:26 | 23.34842 | 113.29797 | 3625 ft | 218 kts | 195° |
| 2026-04-22 16:26 | 23.33363 | 113.29398 | 4737 ft | 230 kts | 196° |
| 2026-04-22 16:26 | 23.31761 | 113.28965 | 5872 ft | 244 kts | 196° |
| 2026-04-22 16:27 | 23.30099 | 113.28539 | 6963 ft | 259 kts | 191° |
| 2026-04-22 16:27 | 23.28263 | 113.28423 | 8065 ft | 275 kts | 184° |
| 2026-04-22 16:27 | 23.26307 | 113.28417 | 9296 ft | 285 kts | 185° |
| 2026-04-22 16:27 | 23.24331 | 113.28411 | 10591 ft | 289 kts | 185° |
| 2026-04-22 16:28 | 23.22312 | 113.28395 | 11797 ft | 296 kts | 186° |
| 2026-04-22 16:28 | 23.20266 | 113.28377 | 12988 ft | 302 kts | 186° |
| 2026-04-22 16:28 | 23.18169 | 113.28188 | 14187 ft | 302 kts | 195° |
| 2026-04-22 16:28 | 23.16113 | 113.27730 | 15414 ft | 305 kts | 194° |
| 2026-04-22 16:29 | 23.13954 | 113.27725 | 16542 ft | 320 kts | 173° |
| 2026-04-22 16:29 | 23.11860 | 113.28623 | 17609 ft | 335 kts | 150° |
| 2026-04-22 16:29 | 23.10149 | 113.30347 | 18630 ft | 348 kts | 133° |
| 2026-04-22 16:29 | 23.08727 | 113.32501 | 19607 ft | 358 kts | 124° |
| 2026-04-22 16:30 | 23.07921 | 113.34109 | 20246 ft | 365 kts | 118° |
| 2026-04-22 16:30 | 23.06815 | 113.37640 | 21456 ft | 379 kts | 99° |
| 2026-04-22 16:30 | 23.06828 | 113.40501 | 22329 ft | 386 kts | 77° |
| 2026-04-22 16:30 | 23.07760 | 113.43197 | 23206 ft | 386 kts | 55° |
| 2026-04-22 16:31 | 23.09498 | 113.45340 | 24042 ft | 380 kts | 31° |
| 2026-04-22 16:31 | 23.11793 | 113.46671 | 24899 ft | 372 kts | 14° |
| 2026-04-22 16:31 | 23.14197 | 113.47678 | 25833 ft | 372 kts | 16° |
| 2026-04-22 16:31 | 23.16684 | 113.48640 | 26326 ft | 381 kts | 11° |
| 2026-04-22 16:32 | 23.19246 | 113.49480 | 26789 ft | 391 kts | 10° |
| 2026-04-22 16:32 | 23.21890 | 113.50316 | 27446 ft | 395 kts | 9° |
| 2026-04-22 16:32 | 23.24531 | 113.51137 | 28086 ft | 399 kts | 9° |
| 2026-04-22 16:32 | 23.27246 | 113.51971 | 28641 ft | 404 kts | 9° |
| 2026-04-22 16:33 | 23.29979 | 113.52805 | 28984 ft | 415 kts | 9° |
| 2026-04-22 16:33 | 23.32838 | 113.53545 | 29116 ft | 427 kts | 4° |
| 2026-04-22 16:33 | 23.35834 | 113.54127 | 29269 ft | 442 kts | 4° |
| 2026-04-22 16:33 | 23.38931 | 113.54654 | 29449 ft | 452 kts | 359° |
| 2026-04-22 16:34 | 23.45332 | 113.54270 | 29509 ft | 470 kts | 341° |
| 2026-04-22 16:34 | 23.48512 | 113.53226 | 29642 ft | 476 kts | 332° |
| 2026-04-22 16:34 | 23.51432 | 113.51653 | 30150 ft | 471 kts | 322° |
| 2026-04-22 16:35 | 23.54064 | 113.49588 | 31168 ft | 456 kts | 313° |
| 2026-04-22 16:35 | 23.56361 | 113.47348 | 32275 ft | 442 kts | 311° |
| 2026-04-22 16:35 | 23.58610 | 113.45086 | 32947 ft | 439 kts | 310° |
| 2026-04-22 16:35 | 23.60863 | 113.42787 | 33100 ft | 447 kts | 310° |
| 2026-04-22 16:36 | 23.63296 | 113.40523 | 33109 ft | 464 kts | 317° |
| 2026-04-22 16:36 | 23.66083 | 113.38623 | 33110 ft | 483 kts | 326° |
| 2026-04-22 16:36 | 23.69263 | 113.37139 | 33108 ft | 501 kts | 335° |
| 2026-04-22 16:36 | 23.72727 | 113.36167 | 33108 ft | 515 kts | 343° |
| 2026-04-22 16:37 | 23.76331 | 113.35780 | 33106 ft | 528 kts | 353° |
| 2026-04-22 16:37 | 23.80061 | 113.36001 | 33112 ft | 536 kts | 0° |
| 2026-04-22 16:37 | 23.87524 | 113.36940 | 33115 ft | 537 kts | 0° |
| 2026-04-22 16:38 | 23.94989 | 113.37819 | 33122 ft | 537 kts | 0° |
| 2026-04-22 16:38 | 24.02464 | 113.38645 | 33129 ft | 537 kts | 359° |
| 2026-04-22 16:39 | 24.09928 | 113.39441 | 33124 ft | 537 kts | 359° |
| 2026-04-22 16:39 | 24.17369 | 113.40218 | 33115 ft | 537 kts | 359° |
| 2026-04-22 16:40 | 24.24829 | 113.40990 | 33108 ft | 531 kts | 359° |
| 2026-04-22 16:41 | 24.35843 | 113.42118 | 33125 ft | 527 kts | 358° |
| 2026-04-22 16:41 | 24.43174 | 113.42358 | 33146 ft | 525 kts | 355° |
| 2026-04-22 16:42 | 24.50494 | 113.42519 | 33164 ft | 524 kts | 355° |
| 2026-04-22 16:42 | 24.57838 | 113.42700 | 33158 ft | 525 kts | 355° |
| 2026-04-22 16:43 | 24.65138 | 113.42893 | 33146 ft | 524 kts | 355° |
| 2026-04-22 16:43 | 24.72475 | 113.43092 | 33132 ft | 525 kts | 355° |
| 2026-04-22 16:44 | 24.79829 | 113.43297 | 33125 ft | 525 kts | 355° |
| 2026-04-22 16:44 | 24.87158 | 113.43503 | 33130 ft | 525 kts | 355° |
| 2026-04-22 16:45 | 24.94516 | 113.43711 | 33135 ft | 526 kts | 355° |
| 2026-04-22 16:45 | 25.01832 | 113.43919 | 33140 ft | 525 kts | 355° |
| 2026-04-22 16:46 | 25.09161 | 113.44128 | 33144 ft | 524 kts | 355° |
| 2026-04-22 16:46 | 25.16468 | 113.44337 | 33144 ft | 524 kts | 355° |
| 2026-04-22 16:47 | 25.23811 | 113.44546 | 33149 ft | 525 kts | 355° |
| 2026-04-22 16:47 | 25.29956 | 113.44722 | 33153 ft | 525 kts | 355° |
| 2026-04-22 16:48 | 25.38496 | 113.44968 | 33159 ft | 524 kts | 355° |
| 2026-04-22 16:48 | 25.45804 | 113.45177 | 33164 ft | 525 kts | 355° |
| 2026-04-22 16:49 | 25.53143 | 113.45389 | 33168 ft | 524 kts | 355° |
| 2026-04-22 16:49 | 25.60465 | 113.45599 | 33170 ft | 525 kts | 355° |
| 2026-04-22 16:50 | 25.67811 | 113.45812 | 33171 ft | 524 kts | 355° |
| 2026-04-22 16:50 | 25.75114 | 113.46022 | 33172 ft | 525 kts | 355° |
| 2026-04-22 16:51 | 25.82459 | 113.46234 | 33165 ft | 525 kts | 355° |
| 2026-04-22 16:51 | 25.89796 | 113.46450 | 33154 ft | 525 kts | 355° |
| 2026-04-22 16:52 | 25.97120 | 113.46678 | 33144 ft | 525 kts | 355° |
| 2026-04-22 16:52 | 26.04411 | 113.46905 | 33138 ft | 525 kts | 355° |
| 2026-04-22 16:53 | 26.11782 | 113.47135 | 33140 ft | 524 kts | 355° |
| 2026-04-22 16:53 | 26.19117 | 113.47364 | 33144 ft | 525 kts | 355° |
| 2026-04-22 16:54 | 26.26405 | 113.47591 | 33149 ft | 525 kts | 355° |
| 2026-04-22 16:54 | 26.33754 | 113.47821 | 33143 ft | 524 kts | 355° |
| 2026-04-22 16:55 | 26.41078 | 113.48051 | 33106 ft | 515 kts | 355° |
| 2026-04-22 16:55 | 26.44627 | 113.48167 | 32677 ft | 506 kts | 355° |
| 2026-04-22 16:55 | 26.48138 | 113.48277 | 31680 ft | 510 kts | 355° |
| 2026-04-22 16:55 | 26.51731 | 113.48386 | 30581 ft | 514 kts | 355° |
| 2026-04-22 16:56 | 26.55284 | 113.48496 | 29885 ft | 510 kts | 355° |
| 2026-04-22 16:56 | 26.58853 | 113.48610 | 29289 ft | 504 kts | 355° |
| 2026-04-22 16:56 | 26.62318 | 113.48720 | 28702 ft | 498 kts | 356° |
| 2026-04-22 16:56 | 26.65774 | 113.48829 | 28108 ft | 493 kts | 356° |
| 2026-04-22 16:57 | 26.69219 | 113.48937 | 27508 ft | 487 kts | 356° |
| 2026-04-22 16:57 | 26.72611 | 113.49045 | 26905 ft | 482 kts | 356° |
| 2026-04-22 16:57 | 26.75910 | 113.49149 | 26318 ft | 477 kts | 356° |
| 2026-04-22 16:57 | 26.79211 | 113.49252 | 25723 ft | 472 kts | 356° |
| 2026-04-22 16:58 | 26.81386 | 113.49321 | 25329 ft | 468 kts | 356° |
| 2026-04-22 16:58 | 26.85735 | 113.49458 | 24533 ft | 461 kts | 356° |
| 2026-04-22 16:58 | 26.88900 | 113.49558 | 23938 ft | 456 kts | 356° |
| 2026-04-22 16:58 | 26.92065 | 113.49657 | 23352 ft | 451 kts | 356° |
| 2026-04-22 16:59 | 26.95200 | 113.49757 | 22766 ft | 446 kts | 356° |
| 2026-04-22 16:59 | 26.98295 | 113.49854 | 22180 ft | 441 kts | 356° |
| 2026-04-22 16:59 | 27.01353 | 113.49950 | 21605 ft | 436 kts | 356° |
| 2026-04-22 16:59 | 27.04374 | 113.50046 | 21021 ft | 432 kts | 356° |
| 2026-04-22 17:00 | 27.07358 | 113.50140 | 20440 ft | 427 kts | 357° |
| 2026-04-22 17:00 | 27.13268 | 113.50326 | 19273 ft | 419 kts | 357° |
| 2026-04-22 17:00 | 27.16177 | 113.50418 | 18694 ft | 415 kts | 357° |
| 2026-04-22 17:01 | 27.19068 | 113.50510 | 18116 ft | 411 kts | 357° |
| 2026-04-22 17:01 | 27.21891 | 113.50599 | 17543 ft | 408 kts | 357° |
| 2026-04-22 17:01 | 27.24704 | 113.50468 | 16966 ft | 399 kts | 348° |
| 2026-04-22 17:01 | 27.27393 | 113.49786 | 16400 ft | 390 kts | 339° |
| 2026-04-22 17:02 | 27.29976 | 113.48867 | 15850 ft | 386 kts | 338° |
| 2026-04-22 17:02 | 27.32528 | 113.47938 | 15304 ft | 382 kts | 338° |
| 2026-04-22 17:02 | 27.35013 | 113.47031 | 14771 ft | 378 kts | 338° |
| 2026-04-22 17:02 | 27.37526 | 113.46112 | 14222 ft | 374 kts | 338° |
| 2026-04-22 17:03 | 27.40009 | 113.45204 | 13680 ft | 371 kts | 338° |
| 2026-04-22 17:03 | 27.42450 | 113.44310 | 13147 ft | 367 kts | 338° |
| 2026-04-22 17:03 | 27.44877 | 113.43420 | 12611 ft | 364 kts | 338° |
| 2026-04-22 17:03 | 27.47288 | 113.42536 | 12077 ft | 360 kts | 338° |
| 2026-04-22 17:04 | 27.49684 | 113.41787 | 11551 ft | 361 kts | 346° |
| 2026-04-22 17:04 | 27.52208 | 113.41583 | 11022 ft | 361 kts | 354° |
| 2026-04-22 17:04 | 27.54711 | 113.41537 | 10620 ft | 354 kts | 355° |
| 2026-04-22 17:04 | 27.57135 | 113.41510 | 10518 ft | 339 kts | 354° |
| 2026-04-22 17:05 | 27.59458 | 113.41482 | 10404 ft | 326 kts | 354° |
| 2026-04-22 17:05 | 27.61698 | 113.41451 | 10278 ft | 314 kts | 354° |
| 2026-04-22 17:05 | 27.63855 | 113.41418 | 10153 ft | 303 kts | 354° |
| 2026-04-22 17:05 | 27.65939 | 113.41445 | 10024 ft | 294 kts | 358° |
| 2026-04-22 17:06 | 27.67980 | 113.41608 | 9677 ft | 294 kts | 359° |
| 2026-04-22 17:06 | 27.70007 | 113.41792 | 9273 ft | 295 kts | 359° |
| 2026-04-22 17:06 | 27.72068 | 113.41979 | 8978 ft | 291 kts | 360° |
| 2026-04-22 17:06 | 27.74078 | 113.42159 | 8585 ft | 292 kts | 360° |
| 2026-04-22 17:07 | 27.76107 | 113.42340 | 8322 ft | 287 kts | 0° |
| 2026-04-22 17:07 | 27.78122 | 113.42519 | 7893 ft | 290 kts | 0° |
| 2026-04-22 17:07 | 27.80129 | 113.42696 | 7452 ft | 284 kts | 0° |
| 2026-04-22 17:07 | 27.82020 | 113.42503 | 7078 ft | 269 kts | 340° |
| 2026-04-22 17:08 | 27.83751 | 113.41798 | 6746 ft | 258 kts | 334° |
| 2026-04-22 17:08 | 27.85392 | 113.41018 | 6437 ft | 251 kts | 334° |
| 2026-04-22 17:08 | 27.87044 | 113.40211 | 6178 ft | 260 kts | 334° |
| 2026-04-22 17:08 | 27.88717 | 113.39392 | 5823 ft | 262 kts | 334° |
| 2026-04-22 17:09 | 27.90369 | 113.38586 | 5591 ft | 258 kts | 334° |
| 2026-04-22 17:09 | 27.91993 | 113.37794 | 5520 ft | 247 kts | 334° |
| 2026-04-22 17:09 | 27.93025 | 113.37248 | 5463 ft | 239 kts | 326° |
| 2026-04-22 17:09 | 27.94525 | 113.35531 | 5349 ft | 223 kts | 306° |
| 2026-04-22 17:10 | 27.95456 | 113.34158 | 5166 ft | 216 kts | 306° |
| 2026-04-22 17:10 | 27.96336 | 113.32848 | 5062 ft | 201 kts | 306° |
| 2026-04-22 17:10 | 27.97170 | 113.31604 | 4774 ft | 197 kts | 306° |
| 2026-04-22 17:10 | 27.97997 | 113.30363 | 4415 ft | 198 kts | 306° |
| 2026-04-22 17:11 | 27.98823 | 113.29115 | 4063 ft | 198 kts | 306° |
| 2026-04-22 17:11 | 27.99636 | 113.27875 | 3712 ft | 198 kts | 306° |
| 2026-04-22 17:11 | 28.00460 | 113.26607 | 3380 ft | 197 kts | 306° |
| 2026-04-22 17:11 | 28.01259 | 113.25373 | 3042 ft | 197 kts | 308° |
| 2026-04-22 17:12 | 28.02278 | 113.24339 | 2722 ft | 194 kts | 324° |
| 2026-04-22 17:12 | 28.03384 | 113.23518 | 2518 ft | 187 kts | 334° |
| 2026-04-22 17:12 | 28.04632 | 113.23185 | 2245 ft | 180 kts | 356° |
| 2026-04-22 17:12 | 28.05868 | 113.23144 | 1895 ft | 173 kts | 358° |
| 2026-04-22 17:13 | 28.07084 | 113.23085 | 1918 ft | 177 kts | 356° |
| 2026-04-22 17:13 | 28.08322 | 113.23006 | 1921 ft | 177 kts | 356° |
| 2026-04-22 17:13 | 28.09573 | 113.22929 | 1741 ft | 178 kts | 357° |
| 2026-04-22 17:13 | 28.10820 | 113.22855 | 1506 ft | 178 kts | 357° |
| 2026-04-22 17:14 | 28.12051 | 113.22781 | 1272 ft | 171 kts | 356° |
| 2026-04-22 17:14 | 28.13180 | 113.22712 | 1063 ft | 155 kts | 356° |
| 2026-04-22 17:14 | 28.14240 | 113.22647 | 867 ft | 149 kts | 356° |
| 2026-04-22 17:14 | 28.15263 | 113.22586 | 674 ft | 145 kts | 356° |
| 2026-04-22 17:15 | 28.15938 | 113.22544 | 549 ft | 144 kts | 356° |
| 2026-04-22 17:15 | 28.17278 | 113.22470 | 312 ft | 143 kts | 355° |
| 2026-04-22 17:15 | 28.18252 | 113.22406 | 233 ft | 130 kts | 356° |
| 2026-04-22 17:15 | 28.19035 | 113.22356 | 232 ft | 90 kts | 357° |
| 2026-04-22 17:16 | 28.19487 | 113.22308 | 232 ft | 49 kts | 337° |
| 2026-04-22 17:16 | 28.19640 | 113.22214 | 232 ft | 8 kts | 331° |
| 2026-04-22 17:16 | 28.19697 | 113.22179 | 232 ft | 10 kts | 331° |
| 2026-04-22 17:16 | 28.19774 | 113.22134 | 232 ft | 13 kts | 339° |
| 2026-04-22 17:17 | 28.19864 | 113.22113 | 232 ft | 14 kts | 356° |
| 2026-04-22 17:17 | 28.19974 | 113.22105 | 232 ft | 17 kts | 356° |
| 2026-04-22 17:17 | 28.20066 | 113.22062 | 232 ft | 15 kts | 290° |
| 2026-04-22 17:17 | 28.20069 | 113.21931 | 232 ft | 18 kts | 268° |
| 2026-04-22 17:18 | 28.20064 | 113.21780 | 232 ft | 17 kts | 267° |
| 2026-04-22 17:18 | 28.20062 | 113.21746 | 232 ft | 1 kts | 266° |
| 2026-04-22 17:18 | 28.20060 | 113.21716 | 232 ft | 6 kts | 266° |
| 2026-04-22 17:18 | 28.20052 | 113.21656 | 232 ft | 9 kts | 242° |
| 2026-04-22 17:19 | 28.19882 | 113.21633 | 232 ft | 16 kts | 174° |
| 2026-04-22 17:19 | 28.19640 | 113.21645 | 232 ft | 19 kts | 178° |
| 2026-04-22 17:20 | 28.19343 | 113.21650 | 232 ft | 22 kts | 177° |
| 2026-04-22 17:20 | 28.19067 | 113.21671 | 232 ft | 13 kts | 178° |
| 2026-04-22 17:21 | 28.18965 | 113.21671 | 232 ft | 10 kts | 180° |
| 2026-04-22 17:21 | 28.18774 | 113.21690 | 232 ft | 17 kts | 176° |
| 2026-04-22 17:22 | 28.18665 | 113.21625 | 232 ft | 8 kts | 292° |
| 2026-04-22 17:22 | 28.18674 | 113.21607 | 232 ft | 2 kts | 310° |
| 2026-04-22 17:22 | 28.18677 | 113.21604 | 232 ft | 0 kts | 311° |